createdAt,value
2022-09-26T00:01:43.555Z,4.97
2022-09-26T00:04:15.894Z,5.00
2022-09-26T00:06:44.414Z,6.03
2022-09-26T00:09:13.392Z,4.83
2022-09-26T00:11:42.971Z,5.00
2022-09-26T00:14:15.633Z,5.50
2022-09-26T00:16:44.040Z,6.30
2022-09-26T00:19:13.106Z,7.60
2022-09-26T00:21:41.472Z,9.53
2022-09-26T00:24:09.980Z,7.87
2022-09-26T00:26:39.088Z,7.33
2022-09-26T00:29:10.566Z,5.30
2022-09-26T00:31:42.639Z,3.93
2022-09-26T00:34:12.368Z,4.60
2022-09-26T00:36:40.578Z,4.70
2022-09-26T00:39:09.970Z,4.83
2022-09-26T00:41:39.548Z,4.20
2022-09-26T00:44:38.248Z,4.23
2022-09-26T00:47:16.973Z,4.00
2022-09-26T00:49:46.362Z,3.40
2022-09-26T00:52:29.359Z,3.13
2022-09-26T00:55:00.427Z,3.67
2022-09-26T00:57:33.971Z,3.77
2022-09-26T01:00:05.251Z,3.10
2022-09-26T01:02:35.060Z,3.50
2022-09-26T01:05:04.500Z,3.77
2022-09-26T01:07:36.051Z,3.83
2022-09-26T01:10:05.274Z,3.80
2022-09-26T01:12:36.271Z,3.17
2022-09-26T01:15:06.382Z,3.10
2022-09-26T01:17:37.876Z,3.30
2022-09-26T01:20:27.595Z,3.40
2022-09-26T01:23:17.715Z,3.47
2022-09-26T01:26:06.533Z,3.70
2022-09-26T01:28:56.586Z,3.30
2022-09-26T01:31:36.447Z,4.00
2022-09-26T01:34:14.330Z,3.30
2022-09-26T01:37:03.257Z,2.90
2022-09-26T01:39:45.466Z,3.07
2022-09-26T01:42:22.392Z,3.80
2022-09-26T01:44:54.805Z,3.47
2022-09-26T01:47:32.019Z,3.00
2022-09-26T01:50:04.199Z,3.00
2022-09-26T01:52:39.140Z,3.50
2022-09-26T01:55:12.223Z,2.67
2022-09-26T01:57:45.341Z,2.43
2022-09-26T02:00:14.099Z,2.53
2022-09-26T02:02:48.639Z,3.17
2022-09-26T02:05:23.501Z,2.47
2022-09-26T02:07:56.936Z,3.13
2022-09-26T02:10:29.812Z,2.80
2022-09-26T02:13:02.515Z,2.73
2022-09-26T02:15:35.968Z,3.10
2022-09-26T02:18:13.723Z,3.30
2022-09-26T02:20:49.839Z,4.37
2022-09-26T02:23:18.429Z,3.30
2022-09-26T02:25:46.730Z,3.63
2022-09-26T02:28:16.095Z,3.90
2022-09-26T02:30:49.228Z,3.00
2022-09-26T02:33:20.047Z,3.83
2022-09-26T02:35:58.741Z,3.67
2022-09-26T02:38:32.631Z,4.53
2022-09-26T02:41:20.204Z,4.00
2022-09-26T02:44:11.846Z,5.00
2022-09-26T02:47:09.432Z,4.40
2022-09-26T02:50:04.348Z,4.10
2022-09-26T02:52:42.042Z,4.20
2022-09-26T02:55:20.894Z,4.50
2022-09-26T02:57:55.800Z,4.23
2022-09-26T03:00:28.595Z,3.67
2022-09-26T03:03:03.288Z,4.60
2022-09-26T03:05:36.231Z,3.73
2022-09-26T03:08:09.400Z,4.30
2022-09-26T03:10:39.269Z,4.90
2022-09-26T03:13:11.244Z,4.40
2022-09-26T03:15:42.064Z,4.50
2022-09-26T03:18:14.880Z,3.10
2022-09-26T03:20:44.686Z,3.90
2022-09-26T03:23:12.985Z,4.50
2022-09-26T03:25:43.403Z,4.23
2022-09-26T03:28:14.160Z,3.73
2022-09-26T03:30:42.572Z,5.47
2022-09-26T03:33:30.679Z,4.57
2022-09-26T03:36:01.424Z,4.10
2022-09-26T03:38:29.739Z,3.90
2022-09-26T03:41:07.203Z,3.87
2022-09-26T03:44:04.271Z,3.90
2022-09-26T03:46:52.635Z,3.90
2022-09-26T03:49:20.826Z,3.83
2022-09-26T03:51:50.675Z,3.97
2022-09-26T03:54:19.080Z,3.23
2022-09-26T03:56:47.296Z,3.37
2022-09-26T03:59:15.830Z,3.00
2022-09-26T04:01:45.216Z,4.67
2022-09-26T04:04:15.281Z,3.80
2022-09-26T04:06:44.912Z,4.37
2022-09-26T04:09:17.572Z,4.10
2022-09-26T04:11:50.371Z,3.57
2022-09-26T04:14:18.666Z,3.97
2022-09-26T04:16:50.623Z,4.50
2022-09-26T04:19:28.975Z,3.80
2022-09-26T04:21:59.483Z,3.83
2022-09-26T04:24:29.714Z,4.40
2022-09-26T04:26:58.137Z,4.80
2022-09-26T04:29:27.220Z,5.00
2022-09-26T04:32:08.601Z,3.90
2022-09-26T04:34:47.671Z,4.50
2022-09-26T04:37:16.039Z,4.77
2022-09-26T04:39:45.647Z,4.97
2022-09-26T04:42:14.475Z,3.80
2022-09-26T04:44:43.519Z,3.80
2022-09-26T04:47:12.251Z,4.13
2022-09-26T04:50:03.411Z,3.80
2022-09-26T04:52:32.956Z,3.93
2022-09-26T04:55:03.940Z,3.43
2022-09-26T04:57:32.871Z,4.20
2022-09-26T05:00:01.048Z,4.33
2022-09-26T05:02:30.436Z,4.57
2022-09-26T05:05:00.062Z,4.73
2022-09-26T05:07:29.489Z,4.40
2022-09-26T05:09:57.814Z,4.13
2022-09-26T05:12:28.559Z,4.23
2022-09-26T05:14:57.016Z,4.30
2022-09-26T05:17:25.446Z,4.70
2022-09-26T05:19:57.090Z,4.40
2022-09-26T05:22:31.390Z,4.90
2022-09-26T05:25:17.203Z,4.67
2022-09-26T05:27:46.975Z,4.73
2022-09-26T05:30:15.592Z,4.97
2022-09-26T05:32:46.228Z,4.53
2022-09-26T05:35:14.673Z,4.27
2022-09-26T05:37:43.714Z,4.77
2022-09-26T05:40:30.730Z,4.23
2022-09-26T05:43:04.578Z,4.37
2022-09-26T05:45:33.356Z,4.60
2022-09-26T05:48:03.616Z,4.20
2022-09-26T05:50:32.471Z,3.80
2022-09-26T05:53:01.419Z,3.57
2022-09-26T05:55:30.335Z,3.90
2022-09-26T05:58:01.321Z,4.40
2022-09-26T06:00:51.610Z,3.17
2022-09-26T06:03:20.506Z,3.70
2022-09-26T06:06:05.753Z,4.27
2022-09-26T06:08:36.717Z,4.40
2022-09-26T06:11:27.924Z,4.80
2022-09-26T06:13:56.158Z,4.20
2022-09-26T06:16:26.120Z,3.60
2022-09-26T06:18:55.750Z,4.17
2022-09-26T06:21:24.684Z,4.10
2022-09-26T06:23:57.075Z,4.23
2022-09-26T06:26:28.878Z,3.90
2022-09-26T06:29:00.488Z,4.30
2022-09-26T06:31:32.827Z,4.20
2022-09-26T06:34:13.393Z,3.80
2022-09-26T06:37:01.035Z,3.67
2022-09-26T06:39:35.700Z,4.23
2022-09-26T06:42:05.781Z,4.20
2022-09-26T06:44:50.106Z,3.87
2022-09-26T06:47:33.661Z,3.87
2022-09-26T06:50:22.358Z,4.10
2022-09-26T06:52:54.458Z,4.80
2022-09-26T06:55:25.343Z,3.90
2022-09-26T06:57:54.068Z,4.00
2022-09-26T07:00:25.853Z,4.13
2022-09-26T07:03:16.076Z,4.50
2022-09-26T07:05:56.911Z,3.63
2022-09-26T07:08:50.458Z,3.20
2022-09-26T07:11:50.367Z,3.70
2022-09-26T07:14:06.689Z,3.50
2022-09-26T07:16:35.467Z,4.10
2022-09-26T07:19:21.343Z,3.57
2022-09-26T07:21:57.303Z,3.77
2022-09-26T07:24:28.836Z,3.90
2022-09-26T07:26:57.121Z,3.40
2022-09-26T07:29:26.581Z,3.60
2022-09-26T07:31:55.151Z,2.93
2022-09-26T07:34:45.022Z,3.87
2022-09-26T07:37:15.626Z,3.43
2022-09-26T07:39:49.103Z,3.10
2022-09-26T07:42:21.745Z,3.43
2022-09-26T07:47:56.409Z,2.73
2022-09-26T07:50:46.884Z,3.80
2022-09-26T07:53:25.994Z,3.10
2022-09-26T07:56:14.541Z,3.40
2022-09-26T07:59:17.202Z,3.10
2022-09-26T08:02:05.898Z,3.60
2022-09-26T08:04:37.152Z,3.80
2022-09-26T08:07:08.562Z,4.20
2022-09-26T08:09:41.918Z,3.67
2022-09-26T08:12:29.006Z,3.57
2022-09-26T08:15:20.715Z,4.37
2022-09-26T08:17:50.144Z,3.67
2022-09-26T08:20:18.936Z,4.03
2022-09-26T08:22:48.780Z,3.97
2022-09-26T08:25:19.034Z,3.17
2022-09-26T08:27:59.581Z,3.17
2022-09-26T08:30:31.502Z,4.07
2022-09-26T08:33:02.784Z,3.10
2022-09-26T08:35:38.849Z,2.87
2022-09-26T08:38:35.574Z,2.73
2022-09-26T08:41:40.451Z,3.30
2022-09-26T08:44:42.119Z,4.53
2022-09-26T08:47:53.377Z,3.20
2022-09-26T08:50:47.345Z,3.00
2022-09-26T08:53:19.897Z,3.63
2022-09-26T08:55:57.522Z,3.50
2022-09-26T08:58:32.663Z,3.40
2022-09-26T09:01:05.028Z,3.83
2022-09-26T09:03:53.004Z,2.57
2022-09-26T09:06:22.180Z,3.37
2022-09-26T09:08:51.939Z,3.57
2022-09-26T09:11:51.347Z,3.90
2022-09-26T09:14:38.039Z,3.30
2022-09-26T09:17:46.502Z,4.00
2022-09-26T09:20:39.748Z,4.00
2022-09-26T09:23:54.081Z,4.20
2022-09-26T09:29:43.077Z,4.07
2022-09-26T09:32:42.009Z,3.37
2022-09-26T09:35:23.439Z,3.70
2022-09-26T09:38:02.564Z,3.50
2022-09-26T09:40:45.946Z,3.00
2022-09-26T09:43:26.070Z,3.10
2022-09-26T09:46:02.630Z,2.60
2022-09-26T09:48:31.587Z,2.90
2022-09-26T09:51:25.227Z,2.80
2022-09-26T09:54:19.693Z,2.77
2022-09-26T09:56:59.587Z,2.60
2022-09-26T09:59:45.865Z,3.10
2022-09-26T10:02:25.178Z,3.57
2022-09-26T10:05:00.960Z,3.27
2022-09-26T10:07:29.206Z,3.70
2022-09-26T10:10:21.191Z,3.70
2022-09-26T10:13:11.310Z,4.00
2022-09-26T10:16:15.709Z,3.87
2022-09-26T10:19:04.611Z,3.53
2022-09-26T10:21:39.461Z,4.10
2022-09-26T10:24:09.609Z,4.00
2022-09-26T10:26:47.341Z,4.27
2022-09-26T10:29:35.076Z,3.53
2022-09-26T10:32:04.671Z,4.30
2022-09-26T10:34:38.092Z,3.90
2022-09-26T10:37:24.661Z,3.40
2022-09-26T10:40:20.932Z,3.90
2022-09-26T10:42:49.339Z,4.43
2022-09-26T10:45:20.427Z,3.90
2022-09-26T10:48:13.579Z,3.87
2022-09-26T10:51:01.808Z,3.43
2022-09-26T10:53:42.688Z,3.83
2022-09-26T10:56:14.499Z,3.20
2022-09-26T10:58:47.151Z,3.97
2022-09-26T11:01:21.370Z,3.93
2022-09-26T11:03:52.123Z,4.23
2022-09-26T11:06:29.650Z,3.80
2022-09-26T11:09:11.151Z,2.93
2022-09-26T11:11:58.028Z,3.30
2022-09-26T11:14:34.400Z,4.23
2022-09-26T11:17:09.833Z,3.13
2022-09-26T11:19:45.486Z,3.10
2022-09-26T11:22:25.208Z,3.20
2022-09-26T11:25:00.875Z,3.23
2022-09-26T11:27:33.350Z,3.97
2022-09-26T11:30:10.567Z,3.50
2022-09-26T11:32:47.863Z,3.50
2022-09-26T11:35:44.247Z,3.87
2022-09-26T11:38:29.148Z,4.00
2022-09-26T11:41:09.230Z,4.00
2022-09-26T11:43:52.320Z,4.00
2022-09-26T11:46:49.538Z,3.67
2022-09-26T11:49:46.063Z,3.37
2022-09-26T11:52:41.180Z,3.10
2022-09-26T11:55:24.931Z,1.83
2022-09-26T11:58:05.380Z,1.47
2022-09-26T12:00:44.587Z,1.50
2022-09-26T12:03:45.607Z,1.47
2022-09-26T12:06:23.694Z,1.67
2022-09-26T12:09:19.118Z,1.53
2022-09-26T12:11:59.229Z,1.23
2022-09-26T12:14:41.832Z,1.13
2022-09-26T12:17:19.691Z,1.20
2022-09-26T12:19:56.907Z,1.37
2022-09-26T12:22:32.276Z,2.00
2022-09-26T12:25:22.821Z,1.60
2022-09-26T12:28:03.391Z,2.00
2022-09-26T12:30:38.687Z,1.90
2022-09-26T12:33:30.907Z,1.30
2022-09-26T12:36:06.206Z,1.57
2022-09-26T12:38:47.614Z,2.50
2022-09-26T12:41:33.291Z,2.00
2022-09-26T12:44:27.219Z,2.20
2022-09-26T12:47:18.218Z,2.23
2022-09-26T12:50:03.795Z,2.70
2022-09-26T12:52:56.421Z,2.40
2022-09-26T12:55:33.190Z,1.77
2022-09-26T12:58:13.059Z,2.07
2022-09-26T13:00:53.968Z,2.00
2022-09-26T13:03:42.692Z,1.70
2022-09-26T13:07:02.362Z,2.07
2022-09-26T13:09:55.465Z,1.53
2022-09-26T13:12:40.561Z,1.60
2022-09-26T13:15:24.518Z,1.10
2022-09-26T13:17:58.321Z,1.17
2022-09-26T13:20:32.324Z,1.63
2022-09-26T13:23:05.072Z,1.60
2022-09-26T13:25:47.188Z,1.40
2022-09-26T13:28:23.312Z,1.33
2022-09-26T13:30:58.074Z,1.50
2022-09-26T13:33:35.050Z,1.40
2022-09-26T13:36:05.134Z,2.27
2022-09-26T13:38:45.839Z,1.50
2022-09-26T13:41:32.710Z,1.20
2022-09-26T13:44:09.982Z,1.47
2022-09-26T13:46:48.510Z,1.23
2022-09-26T13:49:34.960Z,1.60
2022-09-26T13:52:36.476Z,1.37
2022-09-26T13:55:12.249Z,1.50
2022-09-26T13:57:49.729Z,1.40
2022-09-26T14:00:41.019Z,1.30
2022-09-26T14:03:48.765Z,1.33
2022-09-26T14:06:33.162Z,1.43
2022-09-26T14:09:25.745Z,1.20
2022-09-26T14:12:33.694Z,1.50
2022-09-26T14:15:20.828Z,1.70
2022-09-26T14:18:09.658Z,1.77
2022-09-26T14:21:06.459Z,1.50
2022-09-26T14:23:40.041Z,1.40
2022-09-26T14:26:13.131Z,1.63
2022-09-26T14:28:51.532Z,2.17
2022-09-26T14:31:38.611Z,1.50
2022-09-26T14:34:16.899Z,1.37
2022-09-26T14:36:46.672Z,1.20
2022-09-26T14:39:31.861Z,1.80
2022-09-26T14:42:07.784Z,2.30
2022-09-26T14:44:37.659Z,1.50
2022-09-26T14:47:12.454Z,1.40
2022-09-26T14:49:41.093Z,1.40
2022-09-26T14:52:20.533Z,1.80
2022-09-26T14:54:49.764Z,1.83
2022-09-26T14:57:22.619Z,2.57
2022-09-26T14:59:52.358Z,3.10
2022-09-26T15:02:26.884Z,2.57
2022-09-26T15:05:05.148Z,2.77
2022-09-26T15:07:36.802Z,1.60
2022-09-26T15:10:09.823Z,2.10
2022-09-26T15:12:44.265Z,2.60
2022-09-26T15:15:30.167Z,2.37
2022-09-26T15:18:06.004Z,1.63
2022-09-26T15:20:36.648Z,1.60
2022-09-26T15:23:18.837Z,1.73
2022-09-26T15:25:47.401Z,2.13
2022-09-26T15:28:15.619Z,2.10
2022-09-26T15:30:45.419Z,2.13
2022-09-26T15:33:18.612Z,1.97
2022-09-26T15:35:54.935Z,2.20
2022-09-26T15:38:26.088Z,2.87
2022-09-26T15:41:01.638Z,2.10
2022-09-26T15:43:34.821Z,2.40
2022-09-26T15:46:09.679Z,2.10
2022-09-26T15:48:44.147Z,2.10
2022-09-26T15:51:19.599Z,2.70
2022-09-26T15:53:49.583Z,3.40
2022-09-26T15:56:22.362Z,3.47
2022-09-26T15:58:53.344Z,2.40
2022-09-26T16:01:25.729Z,1.73
2022-09-26T16:03:57.325Z,1.87
2022-09-26T16:06:30.036Z,1.50
2022-09-26T16:09:07.044Z,1.73
2022-09-26T16:11:42.571Z,2.10
2022-09-26T16:14:25.833Z,2.10
2022-09-26T16:17:01.943Z,1.73
2022-09-26T16:19:33.615Z,4.60
2022-09-26T16:22:38.963Z,3.40
2022-09-26T16:25:34.265Z,3.27
2022-09-26T16:28:39.568Z,2.13
2022-09-26T16:31:21.021Z,2.40
2022-09-26T16:33:54.012Z,3.20
2022-09-26T16:36:24.802Z,2.97
2022-09-26T16:38:58.789Z,2.10
2022-09-26T16:42:01.339Z,2.70
2022-09-26T16:44:33.442Z,2.93
2022-09-26T16:47:05.813Z,3.00
2022-09-26T16:49:54.323Z,2.60
2022-09-26T16:52:28.718Z,2.67
2022-09-26T16:54:58.797Z,2.27
2022-09-26T16:57:30.107Z,2.20
2022-09-26T17:00:15.876Z,2.57
2022-09-26T17:02:44.329Z,2.20
2022-09-26T17:05:19.619Z,2.00
2022-09-26T17:07:49.456Z,1.97
2022-09-26T17:10:19.608Z,2.00
2022-09-26T17:12:50.645Z,2.27
2022-09-26T17:15:22.974Z,2.50
2022-09-26T17:17:54.193Z,2.20
2022-09-26T17:20:24.523Z,2.40
2022-09-26T17:22:54.717Z,1.93
2022-09-26T17:25:25.193Z,2.37
2022-09-26T17:27:57.664Z,2.50
2022-09-26T17:30:26.321Z,2.43
2022-09-26T17:32:54.694Z,2.60
2022-09-26T17:35:32.515Z,2.87
2022-09-26T17:38:01.335Z,2.57
2022-09-26T17:40:31.654Z,2.10
2022-09-26T17:43:01.932Z,2.63
2022-09-26T17:45:33.104Z,1.93
2022-09-26T17:48:04.969Z,1.93
2022-09-26T17:50:36.330Z,1.57
2022-09-26T17:53:04.921Z,2.40
2022-09-26T17:55:33.522Z,1.90
2022-09-26T17:58:02.310Z,1.77
2022-09-26T18:00:36.090Z,1.90
2022-09-26T18:03:05.025Z,1.70
2022-09-26T18:05:37.892Z,1.90
2022-09-26T18:08:11.686Z,2.33
2022-09-26T18:10:45.371Z,2.83
2022-09-26T18:13:16.412Z,2.20
2022-09-26T18:15:44.693Z,2.50
2022-09-26T18:18:17.218Z,2.90
2022-09-26T18:20:49.411Z,2.30
2022-09-26T18:23:21.006Z,2.40
2022-09-26T18:25:51.333Z,2.20
2022-09-26T18:28:22.641Z,1.87
2022-09-26T18:30:57.819Z,1.73
2022-09-26T18:33:28.936Z,1.80
2022-09-26T18:35:59.450Z,1.33
2022-09-26T18:38:27.935Z,2.50
2022-09-26T18:40:58.754Z,2.20
2022-09-26T18:43:32.074Z,2.90
2022-09-26T18:46:00.878Z,2.40
2022-09-26T18:48:32.877Z,2.33
2022-09-26T18:51:03.412Z,3.00
2022-09-26T18:53:37.490Z,2.07
2022-09-26T18:56:25.320Z,2.20
2022-09-26T18:58:54.361Z,2.50
2022-09-26T19:01:28.640Z,2.50
2022-09-26T19:03:59.765Z,2.53
2022-09-26T19:06:33.046Z,2.10
2022-09-26T19:09:04.412Z,1.80
2022-09-26T19:11:34.965Z,2.43
2022-09-26T19:14:13.201Z,2.23
2022-09-26T19:16:41.624Z,2.10
2022-09-26T19:19:09.884Z,2.23
2022-09-26T19:21:41.714Z,2.33
2022-09-26T19:24:20.763Z,2.17
2022-09-26T19:26:51.352Z,2.63
2022-09-26T19:29:28.296Z,2.67
2022-09-26T19:31:57.088Z,2.20
2022-09-26T19:34:28.240Z,2.40
2022-09-26T19:37:03.320Z,2.77
2022-09-26T19:39:32.498Z,2.50
2022-09-26T19:42:01.609Z,3.33
2022-09-26T19:44:29.898Z,2.63
2022-09-26T19:46:59.838Z,2.57
2022-09-26T19:49:29.902Z,2.33
2022-09-26T19:52:01.088Z,2.63
2022-09-26T19:54:30.875Z,2.20
2022-09-26T19:56:59.456Z,2.10
2022-09-26T19:59:27.924Z,2.40
2022-09-26T20:01:56.402Z,1.90
2022-09-26T20:04:24.680Z,2.13
2022-09-26T20:06:53.072Z,1.90
2022-09-26T20:09:21.302Z,2.17
2022-09-26T20:11:51.335Z,3.00
2022-09-26T20:14:25.387Z,2.57
2022-09-26T20:16:58.947Z,2.13
2022-09-26T20:19:35.724Z,2.30
2022-09-26T20:22:07.432Z,2.20
2022-09-26T20:24:38.500Z,2.50
2022-09-26T20:27:15.480Z,1.73
2022-09-26T20:30:01.362Z,2.73
2022-09-26T20:32:29.800Z,2.47
2022-09-26T20:35:00.457Z,1.60
2022-09-26T20:37:29.468Z,1.63
2022-09-26T20:39:57.854Z,1.97
2022-09-26T20:42:32.200Z,1.80
2022-09-26T20:45:00.840Z,1.50
2022-09-26T20:47:29.460Z,1.60
2022-09-26T20:50:00.301Z,1.60
2022-09-26T20:52:30.715Z,1.87
2022-09-26T20:54:59.089Z,2.10
2022-09-26T20:57:30.216Z,1.17
2022-09-26T20:59:58.512Z,1.10
2022-09-26T21:02:36.604Z,1.17
2022-09-26T21:05:12.309Z,1.20
2022-09-26T21:07:40.656Z,0.90
2022-09-26T21:10:22.820Z,1.10
2022-09-26T21:12:53.079Z,1.40
2022-09-26T21:15:21.890Z,1.27
2022-09-26T21:17:51.201Z,1.40
2022-09-26T21:20:23.837Z,2.60
2022-09-26T21:23:00.896Z,1.40
2022-09-26T21:25:31.359Z,1.10
2022-09-26T21:28:03.504Z,1.33
2022-09-26T21:30:32.139Z,1.67
2022-09-26T21:33:01.520Z,1.03
2022-09-26T21:35:32.113Z,1.37
2022-09-26T21:38:02.534Z,1.30
2022-09-26T21:40:32.964Z,1.00
2022-09-26T21:43:09.062Z,0.80
2022-09-26T21:45:37.294Z,1.10
2022-09-26T21:48:05.631Z,1.13
2022-09-26T21:50:33.991Z,0.90
2022-09-26T21:53:06.570Z,1.00
2022-09-26T21:55:38.679Z,2.00
2022-09-26T21:58:13.008Z,1.17
2022-09-26T22:00:41.530Z,1.00
2022-09-26T22:03:09.823Z,1.30
2022-09-26T22:05:37.980Z,0.97
2022-09-26T22:08:06.372Z,1.30
2022-09-26T22:10:34.630Z,1.27
2022-09-26T22:13:02.823Z,1.07
2022-09-26T22:15:32.468Z,1.30
2022-09-26T22:18:01.168Z,1.37
2022-09-26T22:20:29.344Z,1.03
2022-09-26T22:22:57.638Z,1.70
2022-09-26T22:25:25.861Z,1.53
2022-09-26T22:27:54.299Z,1.20
2022-09-26T22:30:22.539Z,1.20
2022-09-26T22:32:52.136Z,1.30
2022-09-26T22:35:20.490Z,1.23
2022-09-26T22:37:48.726Z,1.20
2022-09-26T22:40:17.047Z,1.17
2022-09-26T22:42:45.502Z,1.53
2022-09-26T22:45:13.791Z,0.97
2022-09-26T22:47:41.991Z,1.13
2022-09-26T22:50:11.891Z,1.10
2022-09-26T22:52:40.323Z,1.30
2022-09-26T22:55:09.183Z,1.20
2022-09-26T22:57:37.867Z,1.37
2022-09-26T23:00:07.327Z,1.23
2022-09-26T23:02:35.721Z,1.50
2022-09-26T23:05:04.216Z,1.50
2022-09-26T23:07:34.042Z,1.37
2022-09-26T23:10:02.274Z,1.47
2022-09-26T23:12:32.382Z,1.10
2022-09-26T23:15:00.762Z,1.57
2022-09-26T23:17:28.982Z,1.77
2022-09-26T23:19:57.153Z,1.37
2022-09-26T23:22:25.451Z,1.30
2022-09-26T23:24:55.647Z,1.10
2022-09-26T23:27:24.679Z,1.13
2022-09-26T23:29:53.824Z,1.10
2022-09-26T23:32:21.965Z,1.13
2022-09-26T23:34:50.139Z,1.30
2022-09-26T23:37:18.571Z,1.40
2022-09-26T23:39:46.800Z,1.30
2022-09-26T23:42:16.382Z,0.80
2022-09-26T23:44:44.596Z,1.33
2022-09-26T23:47:12.875Z,1.37
2022-09-26T23:49:41.104Z,0.93
2022-09-26T23:52:09.377Z,1.47
2022-09-26T23:54:37.631Z,1.23
2022-09-26T23:57:05.850Z,1.30
2022-09-26T23:59:35.639Z,1.17
